sensor_id;sensor_type;location;lat;lon;timestamp;pressure;altitude;pressure_sealevel;temperature;humidity
15634;BME280;14654;48.898;8.308;2023-06-19T00:01:53;99821.97;;;23.32;77.35
15634;BME280;14654;48.898;8.308;2023-06-19T00:04:18;99821.25;;;23.29;76.98
15634;BME280;14654;48.898;8.308;2023-06-19T00:06:44;99831.19;;;23.26;76.69
15634;BME280;14654;48.898;8.308;2023-06-19T00:09:09;99839.41;;;23.21;77.01
15634;BME280;14654;48.898;8.308;2023-06-19T00:11:34;99847.63;;;23.17;77.63
15634;BME280;14654;48.898;8.308;2023-06-19T00:14:00;99857.44;;;23.14;79.08
15634;BME280;14654;48.898;8.308;2023-06-19T00:16:26;99863.69;;;23.13;79.22
15634;BME280;14654;48.898;8.308;2023-06-19T00:18:52;99877.72;;;23.14;80.04
15634;BME280;14654;48.898;8.308;2023-06-19T00:21:23;99884.78;;;23.13;80.23
15634;BME280;14654;48.898;8.308;2023-06-19T00:23:51;99894.41;;;23.14;81.01
15634;BME280;14654;48.898;8.308;2023-06-19T00:26:17;99908.22;;;23.18;80.30
15634;BME280;14654;48.898;8.308;2023-06-19T00:28:43;99910.69;;;23.21;80.01
15634;BME280;14654;48.898;8.308;2023-06-19T00:31:11;99918.41;;;23.24;79.66
15634;BME280;14654;48.898;8.308;2023-06-19T00:33:39;99924.53;;;23.25;80.15
15634;BME280;14654;48.898;8.308;2023-06-19T00:36:12;99922.00;;;23.23;80.86
15634;BME280;14654;48.898;8.308;2023-06-19T00:38:38;99927.38;;;23.22;80.71
15634;BME280;14654;48.898;8.308;2023-06-19T00:41:04;99924.94;;;23.19;81.10
15634;BME280;14654;48.898;8.308;2023-06-19T00:43:30;99939.16;;;23.16;81.88
15634;BME280;14654;48.898;8.308;2023-06-19T00:45:57;99940.09;;;23.15;82.65
15634;BME280;14654;48.898;8.308;2023-06-19T00:48:22;99953.63;;;23.10;83.92
15634;BME280;14654;48.898;8.308;2023-06-19T00:50:49;99948.66;;;23.06;85.44
15634;BME280;14654;48.898;8.308;2023-06-19T00:53:14;99958.78;;;22.99;87.83
15634;BME280;14654;48.898;8.308;2023-06-19T00:55:40;99966.25;;;22.92;89.49
15634;BME280;14654;48.898;8.308;2023-06-19T00:58:06;99971.09;;;22.86;90.82
15634;BME280;14654;48.898;8.308;2023-06-19T01:00:31;99979.81;;;22.73;92.17
15634;BME280;14654;48.898;8.308;2023-06-19T01:02:57;99982.94;;;22.65;96.25
15634;BME280;14654;48.898;8.308;2023-06-19T01:05:23;99986.06;;;22.58;98.35
15634;BME280;14654;48.898;8.308;2023-06-19T01:08:12;99985.31;;;22.41;100.00
15634;BME280;14654;48.898;8.308;2023-06-19T01:10:42;99988.16;;;22.23;100.00
15634;BME280;14654;48.898;8.308;2023-06-19T01:13:21;99989.69;;;22.13;100.00
15634;BME280;14654;48.898;8.308;2023-06-19T01:15:47;99981.50;;;22.03;100.00
15634;BME280;14654;48.898;8.308;2023-06-19T01:18:13;99978.13;;;21.87;100.00
15634;BME280;14654;48.898;8.308;2023-06-19T01:20:40;99971.63;;;21.78;100.00
15634;BME280;14654;48.898;8.308;2023-06-19T01:23:09;99972.00;;;21.72;100.00
15634;BME280;14654;48.898;8.308;2023-06-19T01:25:35;99964.38;;;21.67;100.00
15634;BME280;14654;48.898;8.308;2023-06-19T01:28:05;99941.06;;;21.61;100.00
15634;BME280;14654;48.898;8.308;2023-06-19T01:30:32;99927.28;;;21.56;100.00
15634;BME280;14654;48.898;8.308;2023-06-19T01:33:00;99926.72;;;21.51;100.00
15634;BME280;14654;48.898;8.308;2023-06-19T01:35:30;99922.78;;;21.43;100.00
15634;BME280;14654;48.898;8.308;2023-06-19T01:37:56;99882.91;;;21.35;100.00
15634;BME280;14654;48.898;8.308;2023-06-19T01:40:24;99891.06;;;21.30;100.00
15634;BME280;14654;48.898;8.308;2023-06-19T01:42:52;99904.22;;;21.30;100.00
15634;BME280;14654;48.898;8.308;2023-06-19T01:45:18;99888.81;;;21.24;100.00
15634;BME280;14654;48.898;8.308;2023-06-19T01:47:43;99901.22;;;21.22;100.00
15634;BME280;14654;48.898;8.308;2023-06-19T01:50:10;99896.16;;;21.19;100.00
15634;BME280;14654;48.898;8.308;2023-06-19T01:52:36;99905.16;;;21.15;100.00
15634;BME280;14654;48.898;8.308;2023-06-19T01:55:01;99899.22;;;21.11;100.00
15634;BME280;14654;48.898;8.308;2023-06-19T01:57:27;99894.16;;;21.08;100.00
15634;BME280;14654;48.898;8.308;2023-06-19T01:59:53;99904.00;;;21.05;100.00
15634;BME280;14654;48.898;8.308;2023-06-19T02:02:18;99891.78;;;21.04;100.00
15634;BME280;14654;48.898;8.308;2023-06-19T02:04:43;99878.81;;;21.00;100.00
15634;BME280;14654;48.898;8.308;2023-06-19T02:07:09;99878.06;;;20.98;100.00
15634;BME280;14654;48.898;8.308;2023-06-19T02:09:34;99871.31;;;20.94;100.00
15634;BME280;14654;48.898;8.308;2023-06-19T02:12:00;99885.56;;;20.90;100.00
15634;BME280;14654;48.898;8.308;2023-06-19T02:14:25;99881.25;;;20.89;100.00
15634;BME280;14654;48.898;8.308;2023-06-19T02:16:50;99879.66;;;20.86;100.00
15634;BME280;14654;48.898;8.308;2023-06-19T02:19:15;99886.78;;;20.84;100.00
15634;BME280;14654;48.898;8.308;2023-06-19T02:21:41;99888.47;;;20.85;100.00
15634;BME280;14654;48.898;8.308;2023-06-19T02:24:06;99889.47;;;20.83;100.00
15634;BME280;14654;48.898;8.308;2023-06-19T02:26:32;99896.53;;;20.82;100.00
15634;BME280;14654;48.898;8.308;2023-06-19T02:28:57;99897.38;;;20.83;100.00
15634;BME280;14654;48.898;8.308;2023-06-19T02:31:22;99885.16;;;20.82;100.00
15634;BME280;14654;48.898;8.308;2023-06-19T02:33:48;99890.59;;;20.79;100.00
15634;BME280;14654;48.898;8.308;2023-06-19T02:36:13;99884.50;;;20.78;100.00
15634;BME280;14654;48.898;8.308;2023-06-19T02:38:47;99879.34;;;20.77;100.00
15634;BME280;14654;48.898;8.308;2023-06-19T02:41:13;99885.84;;;20.85;100.00
15634;BME280;14654;48.898;8.308;2023-06-19T02:43:40;99884.22;;;20.83;100.00
15634;BME280;14654;48.898;8.308;2023-06-19T02:46:06;99886.50;;;20.89;100.00
15634;BME280;14654;48.898;8.308;2023-06-19T02:48:31;99889.31;;;20.86;100.00
15634;BME280;14654;48.898;8.308;2023-06-19T02:50:56;99894.47;;;20.88;100.00
15634;BME280;14654;48.898;8.308;2023-06-19T02:53:21;99890.06;;;20.88;100.00
15634;BME280;14654;48.898;8.308;2023-06-19T02:55:47;99889.03;;;20.91;100.00
15634;BME280;14654;48.898;8.308;2023-06-19T02:58:12;99902.19;;;20.91;100.00
15634;BME280;14654;48.898;8.308;2023-06-19T03:00:37;99898.59;;;20.92;100.00
15634;BME280;14654;48.898;8.308;2023-06-19T03:03:03;99904.72;;;20.92;100.00
15634;BME280;14654;48.898;8.308;2023-06-19T03:05:28;99917.97;;;20.91;100.00
15634;BME280;14654;48.898;8.308;2023-06-19T03:07:53;99922.56;;;20.87;100.00
15634;BME280;14654;48.898;8.308;2023-06-19T03:10:19;99930.53;;;20.85;100.00
15634;BME280;14654;48.898;8.308;2023-06-19T03:12:44;99931.47;;;20.84;100.00
15634;BME280;14654;48.898;8.308;2023-06-19T03:15:10;99941.06;;;20.85;100.00
15634;BME280;14654;48.898;8.308;2023-06-19T03:17:36;99930.63;;;20.84;100.00
15634;BME280;14654;48.898;8.308;2023-06-19T03:20:01;99948.19;;;20.83;100.00
15634;BME280;14654;48.898;8.308;2023-06-19T03:22:26;99951.00;;;20.80;100.00
15634;BME280;14654;48.898;8.308;2023-06-19T03:24:52;99946.66;;;20.79;100.00
15634;BME280;14654;48.898;8.308;2023-06-19T03:27:18;99958.88;;;20.80;100.00
15634;BME280;14654;48.898;8.308;2023-06-19T03:32:08;99958.78;;;20.82;100.00
15634;BME280;14654;48.898;8.308;2023-06-19T03:34:34;99957.78;;;20.84;100.00
15634;BME280;14654;48.898;8.308;2023-06-19T03:36:59;99960.41;;;20.84;100.00
15634;BME280;14654;48.898;8.308;2023-06-19T03:39:24;99961.19;;;20.86;100.00
15634;BME280;14654;48.898;8.308;2023-06-19T03:41:50;99962.84;;;20.88;100.00
15634;BME280;14654;48.898;8.308;2023-06-19T03:44:15;99963.53;;;20.91;100.00
15634;BME280;14654;48.898;8.308;2023-06-19T03:46:40;99959.97;;;20.92;100.00
15634;BME280;14654;48.898;8.308;2023-06-19T03:49:06;99958.09;;;20.94;100.00
15634;BME280;14654;48.898;8.308;2023-06-19T03:51:32;99957.06;;;20.97;100.00
15634;BME280;14654;48.898;8.308;2023-06-19T03:53:57;99957.84;;;20.99;100.00
15634;BME280;14654;48.898;8.308;2023-06-19T03:56:23;99949.00;;;21.00;100.00
15634;BME280;14654;48.898;8.308;2023-06-19T03:58:48;99955.09;;;21.00;100.00
15634;BME280;14654;48.898;8.308;2023-06-19T04:01:13;99949.84;;;21.00;100.00
15634;BME280;14654;48.898;8.308;2023-06-19T04:03:39;99955.09;;;21.00;100.00
15634;BME280;14654;48.898;8.308;2023-06-19T04:06:04;99961.13;;;21.02;100.00
15634;BME280;14654;48.898;8.308;2023-06-19T04:08:29;99964.41;;;21.06;100.00
15634;BME280;14654;48.898;8.308;2023-06-19T04:10:55;99972.91;;;21.11;100.00
15634;BME280;14654;48.898;8.308;2023-06-19T04:13:20;99980.34;;;21.19;100.00
15634;BME280;14654;48.898;8.308;2023-06-19T04:15:46;99980.84;;;21.26;100.00
15634;BME280;14654;48.898;8.308;2023-06-19T04:18:11;99993.53;;;21.34;100.00
15634;BME280;14654;48.898;8.308;2023-06-19T04:20:37;99986.97;;;21.41;100.00
15634;BME280;14654;48.898;8.308;2023-06-19T04:23:02;99990.94;;;21.48;100.00
15634;BME280;14654;48.898;8.308;2023-06-19T04:25:27;99996.78;;;21.53;100.00
15634;BME280;14654;48.898;8.308;2023-06-19T04:27:53;99996.41;;;21.59;100.00
15634;BME280;14654;48.898;8.308;2023-06-19T04:30:18;99999.53;;;21.66;100.00
15634;BME280;14654;48.898;8.308;2023-06-19T04:32:46;100000.78;;;21.75;100.00
15634;BME280;14654;48.898;8.308;2023-06-19T04:35:11;99999.50;;;21.82;100.00
15634;BME280;14654;48.898;8.308;2023-06-19T04:37:37;99991.94;;;21.90;100.00
15634;BME280;14654;48.898;8.308;2023-06-19T04:40:02;99991.47;;;21.98;100.00
15634;BME280;14654;48.898;8.308;2023-06-19T04:42:29;99985.84;;;22.04;100.00
15634;BME280;14654;48.898;8.308;2023-06-19T04:44:54;99980.00;;;22.14;99.92
15634;BME280;14654;48.898;8.308;2023-06-19T04:47:23;99980.63;;;22.17;99.55
15634;BME280;14654;48.898;8.308;2023-06-19T04:49:48;99975.81;;;22.24;99.79
15634;BME280;14654;48.898;8.308;2023-06-19T04:52:13;99962.84;;;22.35;99.31
15634;BME280;14654;48.898;8.308;2023-06-19T04:54:39;99966.72;;;22.44;98.66
15634;BME280;14654;48.898;8.308;2023-06-19T04:57:04;99964.91;;;22.45;98.60
15634;BME280;14654;48.898;8.308;2023-06-19T04:59:30;99972.44;;;22.51;98.69
15634;BME280;14654;48.898;8.308;2023-06-19T05:01:56;99972.03;;;22.57;98.50
15634;BME280;14654;48.898;8.308;2023-06-19T05:04:22;99967.13;;;22.65;98.21
15634;BME280;14654;48.898;8.308;2023-06-19T05:06:48;99972.63;;;22.75;98.13
15634;BME280;14654;48.898;8.308;2023-06-19T05:09:13;99968.03;;;22.92;97.50
15634;BME280;14654;48.898;8.308;2023-06-19T05:11:39;99962.06;;;23.16;97.09
15634;BME280;14654;48.898;8.308;2023-06-19T05:14:04;99967.31;;;23.56;95.43
15634;BME280;14654;48.898;8.308;2023-06-19T05:16:30;99962.13;;;23.93;93.91
15634;BME280;14654;48.898;8.308;2023-06-19T05:18:55;99966.06;;;24.38;92.10
15634;BME280;14654;48.898;8.308;2023-06-19T05:21:20;99975.47;;;24.79;90.51
15634;BME280;14654;48.898;8.308;2023-06-19T05:23:46;99977.28;;;25.14;88.93
15634;BME280;14654;48.898;8.308;2023-06-19T05:26:16;99965.97;;;25.59;87.55
15634;BME280;14654;48.898;8.308;2023-06-19T05:28:42;99957.53;;;25.88;86.49
15634;BME280;14654;48.898;8.308;2023-06-19T05:31:07;99955.75;;;25.89;85.57
15634;BME280;14654;48.898;8.308;2023-06-19T05:33:32;99959.94;;;26.02;85.24
15634;BME280;14654;48.898;8.308;2023-06-19T05:35:58;99960.06;;;26.12;84.25
15634;BME280;14654;48.898;8.308;2023-06-19T05:38:23;99962.59;;;26.02;84.13
15634;BME280;14654;48.898;8.308;2023-06-19T05:40:51;99961.03;;;25.89;84.54
15634;BME280;14654;48.898;8.308;2023-06-19T05:43:17;99966.56;;;25.85;84.91
15634;BME280;14654;48.898;8.308;2023-06-19T05:45:43;99966.91;;;26.38;84.42
15634;BME280;14654;48.898;8.308;2023-06-19T05:48:09;99964.31;;;27.03;82.27
15634;BME280;14654;48.898;8.308;2023-06-19T05:50:34;99973.25;;;27.65;80.57
15634;BME280;14654;48.898;8.308;2023-06-19T05:52:59;99974.22;;;28.36;77.99
15634;BME280;14654;48.898;8.308;2023-06-19T05:55:25;99981.47;;;28.85;76.87
15634;BME280;14654;48.898;8.308;2023-06-19T05:57:52;99979.63;;;29.15;76.14
15634;BME280;14654;48.898;8.308;2023-06-19T06:00:18;99986.25;;;29.68;74.29
15634;BME280;14654;48.898;8.308;2023-06-19T06:02:44;99971.56;;;30.20;73.26
15634;BME280;14654;48.898;8.308;2023-06-19T06:05:10;99974.50;;;30.26;71.91
15634;BME280;14654;48.898;8.308;2023-06-19T06:07:35;99973.13;;;30.68;71.27
15634;BME280;14654;48.898;8.308;2023-06-19T06:10:01;99983.94;;;31.21;70.14
15634;BME280;14654;48.898;8.308;2023-06-19T06:12:26;99979.22;;;31.68;69.85
15634;BME280;14654;48.898;8.308;2023-06-19T06:14:52;99989.81;;;32.12;68.66
15634;BME280;14654;48.898;8.308;2023-06-19T06:17:17;99987.41;;;32.44;67.59
15634;BME280;14654;48.898;8.308;2023-06-19T06:19:42;99983.47;;;32.89;66.88
15634;BME280;14654;48.898;8.308;2023-06-19T06:22:08;99983.81;;;32.94;67.04
15634;BME280;14654;48.898;8.308;2023-06-19T06:24:33;99988.84;;;33.22;66.22
15634;BME280;14654;48.898;8.308;2023-06-19T06:26:58;99982.59;;;33.63;64.34
15634;BME280;14654;48.898;8.308;2023-06-19T06:29:24;99979.72;;;33.73;63.65
15634;BME280;14654;48.898;8.308;2023-06-19T06:31:49;99986.22;;;33.79;63.62
15634;BME280;14654;48.898;8.308;2023-06-19T06:34:18;99995.25;;;33.94;63.53
15634;BME280;14654;48.898;8.308;2023-06-19T06:36:43;100000.75;;;34.01;63.28
15634;BME280;14654;48.898;8.308;2023-06-19T06:39:09;100002.03;;;33.57;63.66
15634;BME280;14654;48.898;8.308;2023-06-19T06:41:34;100010.09;;;33.24;63.24
15634;BME280;14654;48.898;8.308;2023-06-19T06:44:00;100019.81;;;33.58;63.02
15634;BME280;14654;48.898;8.308;2023-06-19T06:46:26;100011.75;;;33.58;63.08
15634;BME280;14654;48.898;8.308;2023-06-19T06:48:51;100025.47;;;33.71;62.30
15634;BME280;14654;48.898;8.308;2023-06-19T06:51:17;100035.19;;;33.89;62.18
15634;BME280;14654;48.898;8.308;2023-06-19T06:53:42;100036.63;;;33.35;62.15
15634;BME280;14654;48.898;8.308;2023-06-19T06:56:07;100037.56;;;32.93;62.75
15634;BME280;14654;48.898;8.308;2023-06-19T06:58:32;100040.16;;;32.43;63.51
15634;BME280;14654;48.898;8.308;2023-06-19T07:00:58;100046.84;;;31.34;65.63
15634;BME280;14654;48.898;8.308;2023-06-19T07:03:23;100049.44;;;31.25;66.02
15634;BME280;14654;48.898;8.308;2023-06-19T07:05:48;100061.53;;;30.93;65.67
15634;BME280;14654;48.898;8.308;2023-06-19T07:08:14;100055.97;;;30.59;66.30
15634;BME280;14654;48.898;8.308;2023-06-19T07:10:39;100059.75;;;30.00;67.54
15634;BME280;14654;48.898;8.308;2023-06-19T07:13:05;100070.50;;;30.08;67.16
15634;BME280;14654;48.898;8.308;2023-06-19T07:15:30;100064.59;;;29.47;68.22
15634;BME280;14654;48.898;8.308;2023-06-19T07:17:56;100067.97;;;29.00;69.54
15634;BME280;14654;48.898;8.308;2023-06-19T07:20:21;100064.28;;;28.82;70.47
15634;BME280;14654;48.898;8.308;2023-06-19T07:22:47;100081.81;;;28.94;70.04
15634;BME280;14654;48.898;8.308;2023-06-19T07:25:13;100081.25;;;28.90;69.86
15634;BME280;14654;48.898;8.308;2023-06-19T07:27:40;100087.72;;;28.88;70.23
15634;BME280;14654;48.898;8.308;2023-06-19T07:30:06;100082.03;;;28.71;70.58
15634;BME280;14654;48.898;8.308;2023-06-19T07:32:32;100091.47;;;28.44;71.26
15634;BME280;14654;48.898;8.308;2023-06-19T07:34:58;100092.28;;;28.35;72.02
15634;BME280;14654;48.898;8.308;2023-06-19T07:37:23;100096.91;;;28.33;71.87
15634;BME280;14654;48.898;8.308;2023-06-19T07:39:50;100100.38;;;28.24;72.30
15634;BME280;14654;48.898;8.308;2023-06-19T07:42:16;100103.44;;;28.19;72.52
15634;BME280;14654;48.898;8.308;2023-06-19T07:44:43;100101.47;;;28.00;73.34
15634;BME280;14654;48.898;8.308;2023-06-19T07:47:08;100111.28;;;27.99;73.75
15634;BME280;14654;48.898;8.308;2023-06-19T07:49:35;100106.59;;;27.92;73.93
15634;BME280;14654;48.898;8.308;2023-06-19T07:52:00;100103.28;;;27.99;73.80
15634;BME280;14654;48.898;8.308;2023-06-19T07:54:26;100107.78;;;28.20;73.64
15634;BME280;14654;48.898;8.308;2023-06-19T07:56:51;100107.06;;;28.49;74.03
15634;BME280;14654;48.898;8.308;2023-06-19T07:59:16;100110.56;;;28.90;73.36
15634;BME280;14654;48.898;8.308;2023-06-19T08:01:42;100107.22;;;29.28;72.29
15634;BME280;14654;48.898;8.308;2023-06-19T08:04:08;100103.16;;;29.63;72.23
15634;BME280;14654;48.898;8.308;2023-06-19T08:06:33;100107.50;;;29.84;71.75
15634;BME280;14654;48.898;8.308;2023-06-19T08:08:58;100102.41;;;30.10;71.39
15634;BME280;14654;48.898;8.308;2023-06-19T08:11:23;100106.34;;;30.44;70.76
15634;BME280;14654;48.898;8.308;2023-06-19T08:13:49;100104.69;;;30.70;69.47
15634;BME280;14654;48.898;8.308;2023-06-19T08:16:14;100101.59;;;30.93;69.64
15634;BME280;14654;48.898;8.308;2023-06-19T08:18:40;100108.28;;;30.97;69.75
15634;BME280;14654;48.898;8.308;2023-06-19T08:21:05;100097.91;;;31.22;69.39
15634;BME280;14654;48.898;8.308;2023-06-19T08:23:30;100105.19;;;31.38;68.84
15634;BME280;14654;48.898;8.308;2023-06-19T08:25:56;100102.69;;;31.37;68.36
15634;BME280;14654;48.898;8.308;2023-06-19T08:28:21;100099.81;;;31.30;68.66
15634;BME280;14654;48.898;8.308;2023-06-19T08:30:46;100101.16;;;31.16;68.88
15634;BME280;14654;48.898;8.308;2023-06-19T08:33:13;100099.19;;;31.18;69.37
15634;BME280;14654;48.898;8.308;2023-06-19T08:35:39;100101.06;;;31.08;69.51
15634;BME280;14654;48.898;8.308;2023-06-19T08:38:04;100097.25;;;30.92;69.79
15634;BME280;14654;48.898;8.308;2023-06-19T08:40:29;100097.84;;;31.04;69.85
15634;BME280;14654;48.898;8.308;2023-06-19T08:42:55;100097.31;;;30.82;69.69
15634;BME280;14654;48.898;8.308;2023-06-19T08:45:21;100107.69;;;30.20;70.96
15634;BME280;14654;48.898;8.308;2023-06-19T08:47:48;100107.72;;;30.48;71.27
15634;BME280;14654;48.898;8.308;2023-06-19T08:50:17;100105.56;;;30.89;71.49
15634;BME280;14654;48.898;8.308;2023-06-19T08:52:42;100106.13;;;31.29;69.90
15634;BME280;14654;48.898;8.308;2023-06-19T08:55:08;100100.16;;;30.99;70.66
15634;BME280;14654;48.898;8.308;2023-06-19T08:57:40;100113.25;;;30.36;70.70
15634;BME280;14654;48.898;8.308;2023-06-19T09:00:06;100108.00;;;30.54;70.78
15634;BME280;14654;48.898;8.308;2023-06-19T09:02:42;100104.03;;;30.59;70.63
15634;BME280;14654;48.898;8.308;2023-06-19T09:05:17;100107.56;;;30.59;70.28
15634;BME280;14654;48.898;8.308;2023-06-19T09:07:45;100114.88;;;30.09;70.57
15634;BME280;14654;48.898;8.308;2023-06-19T09:10:19;100111.50;;;30.17;70.80
15634;BME280;14654;48.898;8.308;2023-06-19T09:12:59;100113.34;;;30.17;71.03
15634;BME280;14654;48.898;8.308;2023-06-19T09:15:31;100107.34;;;29.95;71.16
15634;BME280;14654;48.898;8.308;2023-06-19T09:20:29;100107.50;;;29.74;71.74
15634;BME280;14654;48.898;8.308;2023-06-19T09:22:55;100095.84;;;29.85;71.64
15634;BME280;14654;48.898;8.308;2023-06-19T09:25:21;100099.59;;;29.92;71.34
15634;BME280;14654;48.898;8.308;2023-06-19T09:27:48;100099.78;;;29.61;70.74
15634;BME280;14654;48.898;8.308;2023-06-19T09:30:15;100096.75;;;29.56;71.68
15634;BME280;14654;48.898;8.308;2023-06-19T09:32:41;100097.53;;;29.76;71.68
15634;BME280;14654;48.898;8.308;2023-06-19T09:35:06;100090.19;;;29.98;71.31
15634;BME280;14654;48.898;8.308;2023-06-19T09:37:32;100095.41;;;30.37;71.35
15634;BME280;14654;48.898;8.308;2023-06-19T09:39:58;100089.41;;;30.53;70.18
15634;BME280;14654;48.898;8.308;2023-06-19T09:42:27;100091.81;;;30.56;69.76
15634;BME280;14654;48.898;8.308;2023-06-19T09:45:05;100072.78;;;30.69;69.18
15634;BME280;14654;48.898;8.308;2023-06-19T09:47:35;100070.13;;;30.87;69.20
15634;BME280;14654;48.898;8.308;2023-06-19T09:50:02;100079.19;;;30.94;68.89
15634;BME280;14654;48.898;8.308;2023-06-19T09:52:28;100083.03;;;31.10;68.39
15634;BME280;14654;48.898;8.308;2023-06-19T09:54:54;100073.19;;;30.92;69.31
15634;BME280;14654;48.898;8.308;2023-06-19T09:57:20;100079.66;;;30.44;70.10
15634;BME280;14654;48.898;8.308;2023-06-19T09:59:47;100078.56;;;30.26;70.52
15634;BME280;14654;48.898;8.308;2023-06-19T10:02:16;100078.75;;;30.25;71.28
15634;BME280;14654;48.898;8.308;2023-06-19T10:04:46;100087.19;;;30.48;70.95
15634;BME280;14654;48.898;8.308;2023-06-19T10:07:19;100074.66;;;30.59;70.46
15634;BME280;14654;48.898;8.308;2023-06-19T10:10:05;100076.00;;;30.73;70.70
15634;BME280;14654;48.898;8.308;2023-06-19T10:12:41;100062.53;;;30.64;70.45
15634;BME280;14654;48.898;8.308;2023-06-19T10:15:24;100058.88;;;30.65;70.08
15634;BME280;14654;48.898;8.308;2023-06-19T10:18:05;100058.00;;;30.93;69.88
15634;BME280;14654;48.898;8.308;2023-06-19T10:20:31;100054.56;;;31.19;69.59
15634;BME280;14654;48.898;8.308;2023-06-19T10:25:30;100050.75;;;31.39;69.58
15634;BME280;14654;48.898;8.308;2023-06-19T10:27:58;100047.19;;;31.57;68.76
15634;BME280;14654;48.898;8.308;2023-06-19T10:30:23;100048.00;;;31.31;67.71
15634;BME280;14654;48.898;8.308;2023-06-19T10:32:49;100048.66;;;30.61;67.83
15634;BME280;14654;48.898;8.308;2023-06-19T10:35:16;100051.50;;;30.49;69.09
15634;BME280;14654;48.898;8.308;2023-06-19T10:37:42;100047.66;;;30.34;69.94
15634;BME280;14654;48.898;8.308;2023-06-19T10:40:08;100044.06;;;30.71;69.41
15634;BME280;14654;48.898;8.308;2023-06-19T10:42:36;100032.72;;;31.05;69.45
15634;BME280;14654;48.898;8.308;2023-06-19T10:45:03;100046.66;;;30.35;70.20
15634;BME280;14654;48.898;8.308;2023-06-19T10:47:29;100047.53;;;30.25;71.04
15634;BME280;14654;48.898;8.308;2023-06-19T10:49:54;100039.41;;;29.79;71.23
15634;BME280;14654;48.898;8.308;2023-06-19T10:52:20;100045.53;;;30.00;70.98
15634;BME280;14654;48.898;8.308;2023-06-19T10:54:45;100044.13;;;30.05;71.43
15634;BME280;14654;48.898;8.308;2023-06-19T10:57:11;100047.44;;;30.17;70.79
15634;BME280;14654;48.898;8.308;2023-06-19T10:59:38;100034.38;;;30.42;70.96
15634;BME280;14654;48.898;8.308;2023-06-19T11:02:05;100030.69;;;30.53;69.71
15634;BME280;14654;48.898;8.308;2023-06-19T11:04:30;100035.28;;;30.33;69.62
15634;BME280;14654;48.898;8.308;2023-06-19T11:06:56;100023.53;;;30.53;70.27
15634;BME280;14654;48.898;8.308;2023-06-19T11:09:21;100015.56;;;30.71;71.08
15634;BME280;14654;48.898;8.308;2023-06-19T11:11:47;100016.69;;;30.87;69.86
15634;BME280;14654;48.898;8.308;2023-06-19T11:14:15;100013.28;;;31.13;68.93
15634;BME280;14654;48.898;8.308;2023-06-19T11:16:43;100007.63;;;31.16;68.87
15634;BME280;14654;48.898;8.308;2023-06-19T11:19:13;100009.94;;;31.37;69.38
15634;BME280;14654;48.898;8.308;2023-06-19T11:21:38;100007.41;;;31.62;68.63
15634;BME280;14654;48.898;8.308;2023-06-19T11:24:05;100015.06;;;31.75;68.23
15634;BME280;14654;48.898;8.308;2023-06-19T11:26:38;100003.84;;;31.71;66.99
15634;BME280;14654;48.898;8.308;2023-06-19T11:29:30;100006.59;;;31.61;67.73
15634;BME280;14654;48.898;8.308;2023-06-19T11:32:07;100002.78;;;31.01;66.88
15634;BME280;14654;48.898;8.308;2023-06-19T11:34:34;100002.50;;;31.05;67.53
15634;BME280;14654;48.898;8.308;2023-06-19T11:37:02;100004.78;;;30.07;69.01
15634;BME280;14654;48.898;8.308;2023-06-19T11:39:27;100008.19;;;30.55;68.50
15634;BME280;14654;48.898;8.308;2023-06-19T11:41:53;100004.09;;;30.79;68.04
15634;BME280;14654;48.898;8.308;2023-06-19T11:44:18;99994.16;;;30.90;68.59
15634;BME280;14654;48.898;8.308;2023-06-19T11:46:43;99998.13;;;31.22;68.45
15634;BME280;14654;48.898;8.308;2023-06-19T11:49:17;99996.31;;;30.86;67.74
15634;BME280;14654;48.898;8.308;2023-06-19T11:51:46;99984.16;;;30.92;67.31
15634;BME280;14654;48.898;8.308;2023-06-19T11:54:13;99988.38;;;30.58;68.36
15634;BME280;14654;48.898;8.308;2023-06-19T11:56:43;99989.50;;;30.55;68.22
15634;BME280;14654;48.898;8.308;2023-06-19T11:59:08;99983.69;;;30.96;68.15
15634;BME280;14654;48.898;8.308;2023-06-19T12:01:35;99985.13;;;31.09;68.45
15634;BME280;14654;48.898;8.308;2023-06-19T12:04:01;99973.88;;;31.41;68.43
15634;BME280;14654;48.898;8.308;2023-06-19T12:06:27;99977.03;;;30.28;70.42
15634;BME280;14654;48.898;8.308;2023-06-19T12:08:53;99980.06;;;30.33;69.99
15634;BME280;14654;48.898;8.308;2023-06-19T12:11:18;99977.41;;;30.05;71.08
15634;BME280;14654;48.898;8.308;2023-06-19T12:13:44;99972.63;;;30.37;70.49
15634;BME280;14654;48.898;8.308;2023-06-19T12:16:10;99976.34;;;29.50;71.57
15634;BME280;14654;48.898;8.308;2023-06-19T12:18:36;99970.53;;;29.65;71.73
15634;BME280;14654;48.898;8.308;2023-06-19T12:21:01;99978.84;;;29.90;71.82
15634;BME280;14654;48.898;8.308;2023-06-19T12:23:27;99969.28;;;29.69;71.89
15634;BME280;14654;48.898;8.308;2023-06-19T12:25:52;99967.00;;;29.74;71.99
15634;BME280;14654;48.898;8.308;2023-06-19T12:28:18;99946.72;;;29.91;71.46
15634;BME280;14654;48.898;8.308;2023-06-19T12:30:44;99950.00;;;30.13;71.23
15634;BME280;14654;48.898;8.308;2023-06-19T12:33:10;99951.72;;;30.32;70.47
15634;BME280;14654;48.898;8.308;2023-06-19T12:35:40;99943.44;;;30.25;70.15
15634;BME280;14654;48.898;8.308;2023-06-19T12:38:06;99940.97;;;29.86;70.56
15634;BME280;14654;48.898;8.308;2023-06-19T12:40:32;99951.56;;;29.40;72.26
15634;BME280;14654;48.898;8.308;2023-06-19T12:42:58;99948.56;;;29.43;72.13
15634;BME280;14654;48.898;8.308;2023-06-19T12:45:23;99944.81;;;29.46;71.42
15634;BME280;14654;48.898;8.308;2023-06-19T12:47:48;99948.06;;;29.68;71.64
15634;BME280;14654;48.898;8.308;2023-06-19T12:50:14;99934.03;;;30.03;70.39
15634;BME280;14654;48.898;8.308;2023-06-19T12:52:39;99934.38;;;30.36;70.48
15634;BME280;14654;48.898;8.308;2023-06-19T12:55:05;99926.78;;;30.41;69.18
15634;BME280;14654;48.898;8.308;2023-06-19T12:57:30;99934.81;;;30.60;69.04